Skip Navigation Links Skip Navigation Links

Current Weather

Teterboro, N.J.

For information only: do not use for flight planning or navigation.
Latest weather
Observation time Thursday, November 14, 2019 7:51 PM EST
Local time Thursday, November 14, 2019 8:10 PM EST
Flight conditions Visual Meteorological Conditions
Winds
Wind direction Southwest (220°)
Wind speed 7 mph
Visibility 10 mi.
Sky condition
Ceiling unlimited
Sky clear
Temperature 42°F
Dewpoint 31°F
Altimeter 30.29 in.Hg
Derived measurements
Relative humidity 64%
Wind chill 38°F
Density altitude -1459 ft.
Sea-level pressure 30.29 in.Hg
Remarks
Automated weather observing station with precipitation discriminator.
METAR KTEB 150051Z 22006KT 10SM CLR 06/M01 A3029 RMK AO2 SLP257 T00561006

Settings

Location code

InnerDrive.Weather 4.0.6770.0 Release CLR 4.0.30319.42000
Copyright ©2018 Inner Drive Technology. All rights reserved. Portions Copyright ©1986-2018 David Braverman.

Find weather

Site navigation


Skip Navigation Links

Place info

Page info

PayPal - The safer, easier way to pay online!

Return home.

Copyright ©2019 Inner Drive Technology. Purveyors of fine, hand-crafted computer software. Page printed 2019-11-15T01:10:07 UTC.